createdAt,value
2022-10-31T00:01:01.959Z,7.44
2022-10-31T00:03:31.286Z,7.40
2022-10-31T00:05:59.337Z,7.37
2022-10-31T00:08:30.020Z,7.33
2022-10-31T00:10:58.377Z,7.31
2022-10-31T00:13:26.366Z,7.29
2022-10-31T00:15:54.593Z,7.24
2022-10-31T00:18:22.626Z,7.24
2022-10-31T00:21:00.796Z,7.24
2022-10-31T00:23:28.854Z,7.26
2022-10-31T00:26:03.265Z,7.30
2022-10-31T00:28:41.812Z,7.33
2022-10-31T00:31:11.339Z,7.39
2022-10-31T00:33:41.400Z,7.45
2022-10-31T00:36:14.948Z,7.54
2022-10-31T00:38:43.669Z,7.61
2022-10-31T00:41:11.941Z,7.70
2022-10-31T00:43:40.164Z,7.78
2022-10-31T00:46:08.084Z,7.87
2022-10-31T00:48:36.042Z,7.93
2022-10-31T00:51:04.099Z,8.02
2022-10-31T00:53:33.460Z,8.10
2022-10-31T00:56:01.567Z,8.17
2022-10-31T00:58:29.559Z,8.22
2022-10-31T01:00:57.826Z,8.29
2022-10-31T01:03:28.254Z,8.35
2022-10-31T01:06:01.990Z,8.36
2022-10-31T01:08:30.412Z,8.40
2022-10-31T01:11:05.586Z,8.45
2022-10-31T01:13:34.199Z,8.52
2022-10-31T01:16:02.864Z,8.55
2022-10-31T01:18:31.447Z,8.62
2022-10-31T01:21:01.451Z,8.67
2022-10-31T01:23:30.309Z,8.70
2022-10-31T01:26:09.044Z,8.77
2022-10-31T01:28:39.463Z,8.81
2022-10-31T01:31:14.215Z,8.85
2022-10-31T01:33:42.276Z,8.89
2022-10-31T01:36:15.365Z,8.96
2022-10-31T01:38:43.691Z,9.01
2022-10-31T01:41:15.358Z,9.08
2022-10-31T01:43:54.745Z,9.13
2022-10-31T01:46:26.625Z,9.19
2022-10-31T01:48:56.293Z,9.23
2022-10-31T01:51:28.379Z,9.25
2022-10-31T01:54:00.476Z,9.29
2022-10-31T01:56:30.260Z,9.33
2022-10-31T01:59:01.428Z,9.39
2022-10-31T02:01:30.763Z,9.43
2022-10-31T02:03:59.154Z,9.47
2022-10-31T02:06:35.979Z,9.47
2022-10-31T02:09:08.676Z,9.47
2022-10-31T02:11:39.128Z,9.49
2022-10-31T02:14:07.157Z,9.52
2022-10-31T02:16:35.234Z,9.54
2022-10-31T02:19:04.474Z,9.61
2022-10-31T02:21:41.328Z,9.70
2022-10-31T02:24:38.975Z,9.73
2022-10-31T02:27:35.067Z,9.76
2022-10-31T02:30:09.343Z,9.76
2022-10-31T02:32:52.866Z,9.78
2022-10-31T02:35:35.882Z,9.81
2022-10-31T02:38:13.901Z,9.85
2022-10-31T02:40:51.262Z,9.86
2022-10-31T02:43:22.719Z,9.90
2022-10-31T02:45:59.491Z,9.94
2022-10-31T02:48:49.484Z,10.01
2022-10-31T02:51:18.850Z,10.09
2022-10-31T02:53:46.786Z,10.18
2022-10-31T02:56:16.748Z,10.27
2022-10-31T02:58:49.886Z,10.37
2022-10-31T03:01:55.600Z,10.46
2022-10-31T03:04:46.337Z,10.56
2022-10-31T03:07:23.048Z,10.66
2022-10-31T03:10:00.480Z,10.74
2022-10-31T03:12:32.266Z,10.83
2022-10-31T03:15:14.464Z,10.91
2022-10-31T03:17:52.987Z,10.97
2022-10-31T03:20:28.002Z,11.04
2022-10-31T03:22:58.312Z,11.09
2022-10-31T03:25:26.947Z,11.21
2022-10-31T03:27:56.297Z,11.28
2022-10-31T03:30:24.960Z,11.39
2022-10-31T03:32:57.023Z,11.48
2022-10-31T03:35:30.141Z,11.55
2022-10-31T03:38:04.194Z,11.62
2022-10-31T03:40:39.298Z,11.62
2022-10-31T03:43:12.697Z,11.72
2022-10-31T03:45:44.196Z,11.79
2022-10-31T03:48:12.525Z,11.82
2022-10-31T03:50:58.565Z,11.87
2022-10-31T03:53:33.194Z,11.91
2022-10-31T03:56:08.372Z,11.95
2022-10-31T03:58:41.312Z,11.97
2022-10-31T04:01:13.728Z,12.01
2022-10-31T04:03:42.171Z,12.03
2022-10-31T04:06:15.731Z,12.06
2022-10-31T04:08:49.822Z,12.07
2022-10-31T04:11:20.497Z,12.09
2022-10-31T04:13:50.066Z,12.09
2022-10-31T04:16:19.127Z,12.09
2022-10-31T04:18:47.127Z,12.09
2022-10-31T04:21:16.467Z,12.11
2022-10-31T04:23:44.660Z,12.13
2022-10-31T04:26:14.853Z,12.15
2022-10-31T04:28:43.239Z,12.17
2022-10-31T04:31:12.920Z,12.19
2022-10-31T04:33:41.217Z,12.19
2022-10-31T04:36:09.710Z,12.22
2022-10-31T04:38:39.266Z,12.24
2022-10-31T04:41:07.492Z,12.27
2022-10-31T04:43:35.644Z,12.29
2022-10-31T04:46:03.694Z,12.30
2022-10-31T04:48:31.972Z,12.32
2022-10-31T04:51:03.494Z,12.31
2022-10-31T04:53:31.776Z,12.33
2022-10-31T04:56:03.036Z,12.35
2022-10-31T04:58:31.404Z,12.39
2022-10-31T05:00:59.479Z,12.37
2022-10-31T05:03:27.513Z,12.38
2022-10-31T05:05:55.469Z,12.39
2022-10-31T05:08:44.724Z,12.39
2022-10-31T05:11:14.152Z,12.40
2022-10-31T05:13:42.124Z,12.43
2022-10-31T05:16:10.225Z,12.45
2022-10-31T05:18:38.229Z,12.46
2022-10-31T05:21:06.605Z,12.49
2022-10-31T05:23:47.583Z,12.52
2022-10-31T05:26:19.459Z,12.51
2022-10-31T05:28:47.588Z,12.52
2022-10-31T05:31:15.774Z,12.52
2022-10-31T05:33:43.807Z,12.54
2022-10-31T05:36:11.886Z,12.55
2022-10-31T05:38:39.963Z,12.56
2022-10-31T05:41:08.025Z,12.56
2022-10-31T05:43:38.124Z,12.59
2022-10-31T05:46:06.475Z,12.60
2022-10-31T05:48:35.509Z,12.62
2022-10-31T05:51:03.552Z,12.63
2022-10-31T05:53:31.604Z,12.63
2022-10-31T05:55:59.652Z,12.64
2022-10-31T05:58:27.759Z,12.63
2022-10-31T06:00:57.203Z,12.63
2022-10-31T06:03:25.863Z,12.64
2022-10-31T06:05:55.264Z,12.65
2022-10-31T06:08:23.650Z,12.65
2022-10-31T06:10:51.710Z,12.65
2022-10-31T06:13:20.939Z,12.62
2022-10-31T06:15:49.004Z,12.60
2022-10-31T06:18:18.433Z,12.61
2022-10-31T06:20:46.603Z,12.59
2022-10-31T06:23:14.670Z,12.58
2022-10-31T06:25:51.525Z,12.55
2022-10-31T06:28:19.795Z,12.54
2022-10-31T06:30:48.363Z,12.55
2022-10-31T06:33:16.418Z,12.58
2022-10-31T06:35:49.026Z,12.57
2022-10-31T06:38:16.994Z,12.60
2022-10-31T06:40:45.113Z,12.62
2022-10-31T06:43:13.907Z,12.65
2022-10-31T06:45:41.924Z,12.67
2022-10-31T06:48:17.273Z,12.66
2022-10-31T06:50:46.189Z,12.72
2022-10-31T06:53:15.991Z,12.75
2022-10-31T06:55:44.469Z,12.79
2022-10-31T06:58:13.514Z,12.81
2022-10-31T07:00:41.643Z,12.79
2022-10-31T07:03:12.545Z,12.89
2022-10-31T07:05:40.901Z,12.91
2022-10-31T07:08:11.618Z,12.92
2022-10-31T07:10:42.270Z,12.95
2022-10-31T07:13:13.532Z,12.94
2022-10-31T07:15:43.127Z,12.92
2022-10-31T07:18:13.542Z,12.94
2022-10-31T07:20:42.033Z,12.94
2022-10-31T07:23:11.714Z,12.93
2022-10-31T07:25:43.050Z,12.93
2022-10-31T07:28:11.800Z,12.90
2022-10-31T07:30:40.395Z,12.89
2022-10-31T07:33:08.496Z,12.88
2022-10-31T07:35:36.533Z,12.89
2022-10-31T07:38:11.707Z,12.89
2022-10-31T07:40:39.830Z,12.89
2022-10-31T07:43:14.011Z,12.91
2022-10-31T07:45:42.939Z,12.91
2022-10-31T07:48:10.926Z,12.94
2022-10-31T07:50:41.747Z,12.96
2022-10-31T07:53:11.691Z,13.00
2022-10-31T07:55:40.253Z,13.06
2022-10-31T07:58:11.366Z,13.09
2022-10-31T08:00:41.072Z,13.13
2022-10-31T08:03:10.762Z,13.15
2022-10-31T08:05:42.056Z,13.25
2022-10-31T08:08:11.105Z,13.34
2022-10-31T08:10:39.295Z,13.38
2022-10-31T08:13:10.290Z,13.43
2022-10-31T08:15:40.598Z,13.48
2022-10-31T08:18:12.789Z,13.53
2022-10-31T08:20:40.747Z,13.62
2022-10-31T08:23:09.010Z,13.65
2022-10-31T08:25:38.836Z,13.76
2022-10-31T08:28:10.947Z,13.80
2022-10-31T08:30:48.492Z,13.92
2022-10-31T08:33:18.103Z,14.01
2022-10-31T08:35:46.584Z,14.09
2022-10-31T08:38:15.245Z,14.13
2022-10-31T08:40:43.366Z,14.12
2022-10-31T08:43:14.692Z,14.20
2022-10-31T08:45:44.352Z,14.25
2022-10-31T08:48:14.373Z,14.28
2022-10-31T08:50:43.022Z,14.36
2022-10-31T08:53:14.608Z,14.45
2022-10-31T08:55:44.221Z,14.50
2022-10-31T08:58:16.819Z,14.62
2022-10-31T09:00:45.938Z,14.66
2022-10-31T09:03:16.320Z,14.74
2022-10-31T09:05:44.830Z,14.80
2022-10-31T09:08:16.216Z,14.76
2022-10-31T09:10:45.876Z,14.81
2022-10-31T09:13:17.066Z,14.87
2022-10-31T09:15:47.198Z,14.89
2022-10-31T09:18:17.153Z,14.93
2022-10-31T09:20:48.770Z,14.97
2022-10-31T09:23:18.975Z,15.00
2022-10-31T09:25:50.650Z,15.01
2022-10-31T09:28:23.645Z,15.08
2022-10-31T09:30:53.890Z,15.14
2022-10-31T09:33:23.148Z,15.29
2022-10-31T09:35:51.373Z,15.39
2022-10-31T09:38:21.500Z,15.40
2022-10-31T09:40:54.781Z,15.38
2022-10-31T09:43:35.318Z,15.41
2022-10-31T09:46:10.400Z,15.34
2022-10-31T09:48:50.642Z,15.30
2022-10-31T09:51:22.204Z,15.26
2022-10-31T09:53:54.727Z,15.15
2022-10-31T09:56:25.522Z,15.12
2022-10-31T09:58:59.190Z,15.05
2022-10-31T10:01:37.208Z,15.03
2022-10-31T10:04:20.740Z,15.02
2022-10-31T10:06:51.696Z,14.99
2022-10-31T10:12:02.654Z,14.94
2022-10-31T10:14:45.314Z,14.96
2022-10-31T10:17:41.588Z,15.01
2022-10-31T10:20:34.291Z,15.02
2022-10-31T10:23:20.551Z,15.01
2022-10-31T10:25:55.324Z,14.95
2022-10-31T10:28:28.943Z,14.87
2022-10-31T10:31:03.620Z,14.79
2022-10-31T10:33:39.367Z,14.72
2022-10-31T10:36:13.415Z,14.65
2022-10-31T10:38:50.879Z,14.65
2022-10-31T10:41:20.754Z,14.62
2022-10-31T10:43:51.806Z,14.63
2022-10-31T10:46:43.203Z,14.61
2022-10-31T10:49:19.403Z,14.61
2022-10-31T10:52:13.324Z,14.62
2022-10-31T10:54:48.105Z,14.60
2022-10-31T10:57:34.889Z,14.66
2022-10-31T11:00:10.726Z,14.76
2022-10-31T11:02:42.791Z,14.81
2022-10-31T11:05:37.049Z,14.86
2022-10-31T11:08:05.622Z,14.94
2022-10-31T11:10:34.429Z,14.95
2022-10-31T11:13:09.096Z,14.95
2022-10-31T11:15:41.879Z,15.00
2022-10-31T11:20:58.004Z,15.06
2022-10-31T11:23:28.169Z,15.05
2022-10-31T11:25:59.155Z,15.06
2022-10-31T11:28:30.288Z,15.04
2022-10-31T11:31:01.014Z,15.06
2022-10-31T11:33:34.571Z,15.06
2022-10-31T11:36:04.402Z,15.07
2022-10-31T11:38:37.329Z,15.08
2022-10-31T11:41:13.284Z,15.09
2022-10-31T11:43:47.615Z,15.08
2022-10-31T11:46:22.168Z,15.08
2022-10-31T11:48:54.245Z,15.12
2022-10-31T11:51:25.007Z,15.15
2022-10-31T11:53:58.213Z,15.26
2022-10-31T11:56:38.907Z,15.29
2022-10-31T11:59:16.942Z,15.41
2022-10-31T12:01:49.937Z,15.47
2022-10-31T12:04:20.565Z,15.53
2022-10-31T12:06:51.108Z,15.61
2022-10-31T12:09:23.062Z,15.64
2022-10-31T12:12:05.048Z,15.68
2022-10-31T12:14:41.165Z,15.65
2022-10-31T12:17:17.383Z,15.64
2022-10-31T12:20:00.683Z,15.65
2022-10-31T12:22:38.771Z,15.69
2022-10-31T12:25:29.478Z,15.71
2022-10-31T12:28:08.936Z,15.75
2022-10-31T12:30:54.865Z,15.75
2022-10-31T12:33:40.510Z,15.72
2022-10-31T12:36:40.419Z,15.73
2022-10-31T12:39:38.581Z,15.75
2022-10-31T12:42:17.668Z,15.76
2022-10-31T12:45:04.834Z,15.85
2022-10-31T12:47:56.823Z,15.95
2022-10-31T12:50:36.188Z,16.01
2022-10-31T12:53:21.089Z,16.07
2022-10-31T12:55:58.001Z,16.08
2022-10-31T12:58:30.430Z,16.02
2022-10-31T13:01:10.227Z,15.98
2022-10-31T13:03:48.667Z,15.98
2022-10-31T13:06:21.169Z,15.97
2022-10-31T13:08:54.620Z,15.95
2022-10-31T13:11:27.291Z,15.96
2022-10-31T13:14:05.424Z,15.95
2022-10-31T13:16:38.051Z,15.88
2022-10-31T13:19:13.481Z,15.81
2022-10-31T13:21:49.197Z,15.75
2022-10-31T13:24:27.836Z,15.71
2022-10-31T13:27:01.223Z,15.68
2022-10-31T13:29:34.396Z,15.68
2022-10-31T13:32:06.427Z,15.68
2022-10-31T13:34:40.206Z,15.72
2022-10-31T13:37:28.536Z,15.76
2022-10-31T13:40:16.047Z,15.77
2022-10-31T13:42:56.090Z,15.75
2022-10-31T13:45:26.588Z,15.72
2022-10-31T13:48:00.006Z,15.73
2022-10-31T13:50:30.773Z,15.65
2022-10-31T13:53:23.669Z,15.56
2022-10-31T13:56:20.775Z,15.49
2022-10-31T13:59:20.817Z,15.45
2022-10-31T14:01:52.015Z,15.39
2022-10-31T14:04:25.951Z,15.34
2022-10-31T14:07:03.488Z,15.27
2022-10-31T14:09:35.567Z,15.22
2022-10-31T14:12:08.845Z,15.14
2022-10-31T14:14:51.219Z,15.08
2022-10-31T14:17:23.779Z,15.01
2022-10-31T14:20:27.758Z,14.96
2022-10-31T14:22:55.916Z,14.91
2022-10-31T14:25:33.622Z,14.86
2022-10-31T14:28:20.547Z,14.81
2022-10-31T14:30:54.975Z,14.77
2022-10-31T14:33:26.413Z,14.71
2022-10-31T14:36:01.351Z,14.65
2022-10-31T14:38:49.284Z,14.62
2022-10-31T14:41:33.184Z,14.56
2022-10-31T14:44:36.784Z,14.47
2022-10-31T14:47:15.572Z,14.41
2022-10-31T14:50:03.088Z,14.34
2022-10-31T14:52:31.527Z,14.26
2022-10-31T14:55:02.315Z,14.17
2022-10-31T14:57:34.110Z,14.10
2022-10-31T15:00:06.562Z,14.02
2022-10-31T15:02:41.842Z,13.95
2022-10-31T15:05:11.760Z,13.87
2022-10-31T15:07:51.826Z,13.80
2022-10-31T15:10:26.586Z,13.72
2022-10-31T15:12:55.129Z,13.66
2022-10-31T15:15:27.078Z,13.57
2022-10-31T15:17:58.216Z,13.52
2022-10-31T15:20:29.570Z,13.43
2022-10-31T15:22:59.541Z,13.40
2022-10-31T15:25:32.679Z,13.34
2022-10-31T15:28:01.344Z,13.28
2022-10-31T15:30:31.769Z,13.23
2022-10-31T15:32:59.937Z,13.18
2022-10-31T15:35:30.607Z,13.12
2022-10-31T15:38:00.544Z,13.07
2022-10-31T15:40:29.485Z,13.06
2022-10-31T15:42:59.910Z,13.04
2022-10-31T15:45:40.519Z,12.96
2022-10-31T15:48:20.159Z,12.93
2022-10-31T15:50:52.613Z,12.87
2022-10-31T15:53:24.759Z,12.81
2022-10-31T15:55:56.093Z,12.75
2022-10-31T15:58:25.705Z,12.68
2022-10-31T16:01:02.954Z,12.61
2022-10-31T16:03:32.445Z,12.53
2022-10-31T16:06:02.081Z,12.44
2022-10-31T16:08:38.321Z,12.34
2022-10-31T16:11:24.285Z,12.27
2022-10-31T16:14:01.431Z,12.26
2022-10-31T16:16:35.527Z,12.23
2022-10-31T16:19:08.225Z,12.27
2022-10-31T16:21:39.322Z,12.32
2022-10-31T16:24:19.045Z,12.33
2022-10-31T16:26:51.218Z,12.35
2022-10-31T16:29:36.528Z,12.39
2022-10-31T16:32:28.830Z,12.39
2022-10-31T16:35:01.645Z,12.39
2022-10-31T16:37:29.696Z,12.37
2022-10-31T16:39:57.781Z,12.36
2022-10-31T16:42:26.049Z,12.35
2022-10-31T16:44:54.203Z,12.36
2022-10-31T16:47:26.088Z,12.37
2022-10-31T16:50:01.008Z,12.36
2022-10-31T16:52:38.146Z,12.34
2022-10-31T16:55:17.210Z,12.34
2022-10-31T16:57:47.758Z,12.33
2022-10-31T17:00:17.827Z,12.32
2022-10-31T17:02:49.911Z,12.31
2022-10-31T17:05:19.963Z,12.29
2022-10-31T17:07:48.510Z,12.26
2022-10-31T17:10:17.442Z,12.24
2022-10-31T17:12:48.921Z,12.20
2022-10-31T17:15:20.184Z,12.19
2022-10-31T17:17:49.891Z,12.18
2022-10-31T17:20:21.756Z,12.16
2022-10-31T17:22:49.908Z,12.14
2022-10-31T17:25:20.856Z,12.14
2022-10-31T17:27:48.880Z,12.12
2022-10-31T17:30:18.803Z,12.08
2022-10-31T17:32:47.663Z,12.05
2022-10-31T17:35:17.975Z,12.01
2022-10-31T17:37:47.030Z,11.94
2022-10-31T17:40:17.553Z,11.86
2022-10-31T17:42:50.975Z,11.79
2022-10-31T17:45:19.339Z,11.72
2022-10-31T17:47:49.653Z,11.67
2022-10-31T17:50:20.306Z,11.64
2022-10-31T17:52:50.202Z,11.61
2022-10-31T17:55:18.911Z,11.58
2022-10-31T17:57:48.042Z,11.55
2022-10-31T18:00:18.577Z,11.51
2022-10-31T18:02:46.559Z,11.47
2022-10-31T18:05:14.581Z,11.41
2022-10-31T18:07:45.666Z,11.39
2022-10-31T18:10:13.715Z,11.35
2022-10-31T18:12:41.772Z,11.34
2022-10-31T18:15:10.508Z,11.32
2022-10-31T18:17:42.827Z,11.25
2022-10-31T18:20:11.571Z,11.28
2022-10-31T18:22:39.666Z,11.27
2022-10-31T18:25:10.029Z,11.24
2022-10-31T18:27:40.460Z,11.26
2022-10-31T18:30:09.473Z,11.24
2022-10-31T18:32:38.736Z,11.23
2022-10-31T18:35:07.431Z,11.19
2022-10-31T18:37:35.927Z,11.16
2022-10-31T18:40:04.585Z,11.16
2022-10-31T18:42:33.972Z,11.11
2022-10-31T18:45:11.483Z,11.09
2022-10-31T18:47:52.255Z,11.06
2022-10-31T18:50:20.543Z,11.04
2022-10-31T18:52:48.572Z,11.03
2022-10-31T18:55:16.679Z,11.02
2022-10-31T18:57:46.720Z,11.00
2022-10-31T19:00:15.394Z,10.99
2022-10-31T19:02:44.053Z,10.97
2022-10-31T19:05:12.040Z,10.95
2022-10-31T19:07:42.915Z,10.92
2022-10-31T19:10:11.205Z,10.91
2022-10-31T19:12:39.179Z,10.88
2022-10-31T19:15:09.431Z,10.85
2022-10-31T19:17:41.036Z,10.81
2022-10-31T19:20:10.158Z,10.77
2022-10-31T19:22:38.122Z,10.70
2022-10-31T19:25:10.478Z,10.68
2022-10-31T19:27:39.642Z,10.62
2022-10-31T19:30:10.796Z,10.58
2022-10-31T19:32:40.838Z,10.51
2022-10-31T19:35:11.072Z,10.44
2022-10-31T19:37:53.981Z,10.40
2022-10-31T19:40:22.067Z,10.35
2022-10-31T19:42:50.042Z,10.34
2022-10-31T19:45:19.604Z,10.29
2022-10-31T19:47:47.600Z,10.26
2022-10-31T19:50:15.721Z,10.24
2022-10-31T19:52:43.903Z,10.25
2022-10-31T19:55:11.879Z,10.26
2022-10-31T20:00:32.651Z,10.32
2022-10-31T20:03:01.221Z,10.37
2022-10-31T20:05:29.460Z,10.39
2022-10-31T20:07:58.036Z,10.39
2022-10-31T20:10:26.475Z,10.41
2022-10-31T20:12:54.427Z,10.42
2022-10-31T20:15:22.415Z,10.42
2022-10-31T20:17:51.764Z,10.42
2022-10-31T20:20:19.794Z,10.37
2022-10-31T20:22:49.884Z,10.40
2022-10-31T20:25:35.815Z,10.37
2022-10-31T20:28:07.204Z,10.36
2022-10-31T20:30:37.302Z,10.33
2022-10-31T20:33:07.304Z,10.29
2022-10-31T20:35:37.743Z,10.25
2022-10-31T20:38:06.355Z,10.22
2022-10-31T20:40:34.740Z,10.20
2022-10-31T20:43:03.471Z,10.16
2022-10-31T20:45:32.103Z,10.17
2022-10-31T20:48:00.407Z,10.16
2022-10-31T20:50:31.017Z,10.17
2022-10-31T20:53:07.321Z,10.17
2022-10-31T20:55:35.600Z,10.18
2022-10-31T20:58:03.716Z,10.14
2022-10-31T21:00:31.625Z,10.14
2022-10-31T21:03:00.258Z,10.13
2022-10-31T21:05:30.133Z,10.10
2022-10-31T21:08:02.134Z,10.09
2022-10-31T21:10:30.061Z,10.06
2022-10-31T21:12:58.253Z,10.05
2022-10-31T21:15:26.385Z,10.02
2022-10-31T21:17:55.719Z,10.00
2022-10-31T21:20:23.777Z,9.99
2022-10-31T21:22:54.608Z,9.96
2022-10-31T21:25:24.224Z,9.96
2022-10-31T21:28:15.439Z,9.95
2022-10-31T21:30:44.622Z,9.93
2022-10-31T21:33:12.714Z,9.91
2022-10-31T21:35:40.711Z,9.92
2022-10-31T21:38:11.178Z,9.89
2022-10-31T21:40:39.194Z,9.89
2022-10-31T21:43:13.326Z,9.89
2022-10-31T21:45:41.356Z,9.85
2022-10-31T21:48:09.360Z,9.84
2022-10-31T21:50:37.804Z,9.82
2022-10-31T21:53:23.870Z,9.81
2022-10-31T21:56:04.136Z,9.78
2022-10-31T21:58:34.810Z,9.77
2022-10-31T22:01:05.887Z,9.77
2022-10-31T22:03:36.583Z,9.74
2022-10-31T22:06:05.283Z,9.72
2022-10-31T22:08:34.007Z,9.69
2022-10-31T22:11:05.239Z,9.69
2022-10-31T22:13:37.875Z,9.67
2022-10-31T22:16:08.233Z,9.65
2022-10-31T22:18:36.802Z,9.63
2022-10-31T22:21:06.083Z,9.62
2022-10-31T22:23:35.740Z,9.62
2022-10-31T22:26:09.100Z,9.61
2022-10-31T22:28:40.130Z,9.58
2022-10-31T22:31:09.698Z,9.57
2022-10-31T22:33:38.026Z,9.55
2022-10-31T22:36:08.713Z,9.53
2022-10-31T22:38:40.030Z,9.49
2022-10-31T22:41:11.139Z,9.46
2022-10-31T22:43:39.625Z,9.45
2022-10-31T22:46:11.640Z,9.43
2022-10-31T22:48:41.400Z,9.42
2022-10-31T22:51:11.442Z,9.42
2022-10-31T22:53:40.595Z,9.46
2022-10-31T22:56:13.164Z,9.46
2022-10-31T22:58:41.258Z,9.47
2022-10-31T23:01:10.782Z,9.47
2022-10-31T23:03:39.207Z,9.49
2022-10-31T23:06:09.144Z,9.49
2022-10-31T23:08:38.783Z,9.50
2022-10-31T23:11:17.064Z,9.49
2022-10-31T23:14:03.627Z,9.50
2022-10-31T23:16:32.034Z,9.49
2022-10-31T23:19:00.448Z,9.49
2022-10-31T23:21:44.060Z,9.49
2022-10-31T23:24:12.891Z,9.47
2022-10-31T23:27:01.513Z,9.43
2022-10-31T23:29:29.463Z,9.44
2022-10-31T23:31:57.698Z,9.43
2022-10-31T23:34:25.676Z,9.42
2022-10-31T23:36:53.874Z,9.42
2022-10-31T23:39:25.112Z,9.42
2022-10-31T23:41:54.835Z,9.42
2022-10-31T23:44:23.309Z,9.40
2022-10-31T23:46:51.283Z,9.40
2022-10-31T23:49:19.327Z,9.38
2022-10-31T23:51:47.317Z,9.38
2022-10-31T23:54:15.333Z,9.38
2022-10-31T23:56:43.366Z,9.36
2022-10-31T23:59:20.969Z,9.35
